createdAt,value
2023-12-09T00:01:34.741Z,26.25
2023-12-09T00:04:01.805Z,25.48
2023-12-09T00:06:29.015Z,24.85
2023-12-09T00:08:56.160Z,26.52
2023-12-09T00:11:23.158Z,24.58
2023-12-09T00:13:50.145Z,26.70
2023-12-09T00:16:18.302Z,25.40
2023-12-09T00:18:45.386Z,25.23
2023-12-09T00:21:12.547Z,26.05
2023-12-09T00:23:47.312Z,27.00
2023-12-09T00:26:15.727Z,27.10
2023-12-09T00:28:42.863Z,24.13
2023-12-09T00:31:10.071Z,25.73
2023-12-09T00:33:37.414Z,25.67
2023-12-09T00:36:04.814Z,24.35
2023-12-09T00:38:31.745Z,26.88
2023-12-09T00:40:58.781Z,27.73
2023-12-09T00:43:25.662Z,26.20
2023-12-09T00:45:52.686Z,27.88
2023-12-09T00:48:19.737Z,27.88
2023-12-09T00:50:46.796Z,26.35
2023-12-09T00:53:13.992Z,28.33
2023-12-09T00:55:40.932Z,27.75
2023-12-09T00:58:07.979Z,28.02
2023-12-09T01:00:34.991Z,27.40
2023-12-09T01:03:02.000Z,27.63
2023-12-09T01:05:29.069Z,27.85
2023-12-09T01:07:56.018Z,28.80
2023-12-09T01:10:23.305Z,27.95
2023-12-09T01:12:50.370Z,30.02
2023-12-09T01:15:17.553Z,29.38
2023-12-09T01:17:44.505Z,28.88
2023-12-09T01:20:11.956Z,28.38
2023-12-09T01:22:38.821Z,27.90
2023-12-09T01:25:06.566Z,28.15
2023-12-09T01:27:33.572Z,28.92
2023-12-09T01:30:00.733Z,30.30
2023-12-09T01:32:28.037Z,31.85
2023-12-09T01:34:55.265Z,31.70
2023-12-09T01:37:22.291Z,32.05
2023-12-09T01:39:49.314Z,31.38
2023-12-09T01:42:16.306Z,32.35
2023-12-09T01:44:43.534Z,34.45
2023-12-09T01:47:13.705Z,33.13
2023-12-09T01:52:16.318Z,31.70
2023-12-09T01:54:44.030Z,35.08
2023-12-09T01:57:15.420Z,35.58
2023-12-09T01:59:47.401Z,35.05
2023-12-09T02:02:14.892Z,34.92
2023-12-09T02:04:42.308Z,36.58
2023-12-09T02:07:09.421Z,38.25
2023-12-09T02:09:38.925Z,37.28
2023-12-09T02:12:27.710Z,37.55
2023-12-09T02:15:08.118Z,36.95
2023-12-09T02:17:43.931Z,38.47
2023-12-09T02:20:12.862Z,38.20
2023-12-09T02:22:39.782Z,37.13
2023-12-09T02:25:07.573Z,38.63
2023-12-09T02:27:49.134Z,36.95
2023-12-09T02:30:30.964Z,36.40
2023-12-09T02:33:00.646Z,34.60
2023-12-09T02:35:30.591Z,34.35
2023-12-09T02:38:02.789Z,34.75
2023-12-09T02:40:30.718Z,35.10
2023-12-09T02:42:57.871Z,35.00
2023-12-09T02:45:24.914Z,35.15
2023-12-09T02:47:52.002Z,37.72
2023-12-09T02:50:19.128Z,33.85
2023-12-09T02:52:46.193Z,33.75
2023-12-09T02:55:13.190Z,33.50
2023-12-09T02:57:40.219Z,35.80
2023-12-09T03:00:17.093Z,34.47
2023-12-09T03:02:44.822Z,32.50
2023-12-09T03:05:11.969Z,35.15
2023-12-09T03:07:39.110Z,32.13
2023-12-09T03:10:06.301Z,32.92
2023-12-09T03:12:33.355Z,33.10
2023-12-09T03:15:00.365Z,32.63
2023-12-09T03:17:27.306Z,32.25
2023-12-09T03:19:54.284Z,34.95
2023-12-09T03:22:21.299Z,35.70
2023-12-09T03:24:49.360Z,32.88
2023-12-09T03:27:16.361Z,32.85
2023-12-09T03:29:43.303Z,32.30
2023-12-09T03:32:10.220Z,33.15
2023-12-09T03:34:37.183Z,31.30
2023-12-09T03:37:04.402Z,32.92
2023-12-09T03:39:31.327Z,31.77
2023-12-09T03:41:58.307Z,32.55
2023-12-09T03:44:25.234Z,32.35
2023-12-09T03:46:52.251Z,32.60
2023-12-09T03:49:19.280Z,33.45
2023-12-09T03:51:46.490Z,37.72
2023-12-09T03:54:13.532Z,41.67
2023-12-09T03:56:40.636Z,46.50
2023-12-09T03:59:07.956Z,47.20
2023-12-09T04:01:34.997Z,46.47
2023-12-09T04:04:02.003Z,43.47
2023-12-09T04:06:29.212Z,44.95
2023-12-09T04:08:56.157Z,51.13
2023-12-09T04:11:23.170Z,51.80
2023-12-09T04:13:50.110Z,51.97
2023-12-09T04:16:17.052Z,49.92
2023-12-09T04:18:43.983Z,47.50
2023-12-09T04:21:11.169Z,46.95
2023-12-09T04:23:38.121Z,44.10
2023-12-09T04:26:06.172Z,42.30
2023-12-09T04:28:33.068Z,39.53
2023-12-09T04:31:03.123Z,38.00
2023-12-09T04:33:31.398Z,37.05
2023-12-09T04:35:58.550Z,34.90
2023-12-09T04:38:25.654Z,35.90
2023-12-09T04:40:52.515Z,32.72
2023-12-09T04:43:19.810Z,32.97
2023-12-09T04:45:46.842Z,33.85
2023-12-09T04:48:13.975Z,32.60
2023-12-09T04:50:40.987Z,31.70
2023-12-09T04:53:09.380Z,32.45
2023-12-09T04:55:36.324Z,32.17
2023-12-09T04:58:04.458Z,31.83
2023-12-09T05:00:31.438Z,33.53
2023-12-09T05:02:58.429Z,32.25
2023-12-09T05:05:26.169Z,32.63
2023-12-09T05:07:53.089Z,30.70
2023-12-09T05:10:20.101Z,30.25
2023-12-09T05:12:47.080Z,30.10
2023-12-09T05:15:14.236Z,30.70
2023-12-09T05:17:41.300Z,30.63
2023-12-09T05:20:11.283Z,31.08
2023-12-09T05:22:38.601Z,29.80
2023-12-09T05:25:06.070Z,28.98
2023-12-09T05:27:33.325Z,31.73
2023-12-09T05:30:00.609Z,30.67
2023-12-09T05:32:29.757Z,32.00
2023-12-09T05:34:56.788Z,32.38
2023-12-09T05:37:23.754Z,31.83
2023-12-09T05:39:50.638Z,31.75
2023-12-09T05:42:17.597Z,29.83
2023-12-09T05:44:44.679Z,31.92
2023-12-09T05:47:11.759Z,29.48
2023-12-09T05:49:38.728Z,29.35
2023-12-09T05:52:06.145Z,28.98
2023-12-09T05:54:33.504Z,30.35
2023-12-09T05:57:00.604Z,29.88
2023-12-09T05:59:27.620Z,28.67
2023-12-09T06:01:56.433Z,28.02
2023-12-09T06:04:23.495Z,31.02
2023-12-09T06:06:50.563Z,29.17
2023-12-09T06:09:17.516Z,30.08
2023-12-09T06:11:44.770Z,29.15
2023-12-09T06:14:11.795Z,29.35
2023-12-09T06:16:38.916Z,29.00
2023-12-09T06:19:05.826Z,30.50
2023-12-09T06:21:32.912Z,29.48
2023-12-09T06:23:59.846Z,30.85
2023-12-09T06:26:26.921Z,30.73
2023-12-09T06:28:53.899Z,31.88
2023-12-09T06:31:21.394Z,29.73
2023-12-09T06:33:48.484Z,30.30
2023-12-09T06:36:15.729Z,31.33
2023-12-09T06:38:42.797Z,30.92
2023-12-09T06:41:09.991Z,28.92
2023-12-09T06:43:36.947Z,31.58
2023-12-09T06:46:04.087Z,31.15
2023-12-09T06:48:31.190Z,32.22
2023-12-09T06:50:58.350Z,31.55
2023-12-09T06:53:25.238Z,30.80
2023-12-09T06:55:52.190Z,31.48
2023-12-09T06:58:19.461Z,31.85
2023-12-09T07:00:48.334Z,32.58
2023-12-09T07:03:15.753Z,36.58
2023-12-09T07:05:43.017Z,34.63
2023-12-09T07:08:12.095Z,33.20
2023-12-09T07:10:39.239Z,36.63
2023-12-09T07:13:06.303Z,35.60
2023-12-09T07:15:33.342Z,33.72
2023-12-09T07:18:00.518Z,37.35
2023-12-09T07:20:27.590Z,38.42
2023-12-09T07:22:54.565Z,39.47
2023-12-09T07:25:21.615Z,41.08
2023-12-09T07:27:48.638Z,42.63
2023-12-09T07:30:16.838Z,40.58
2023-12-09T07:32:44.085Z,37.75
2023-12-09T07:35:11.326Z,38.72
2023-12-09T07:37:38.236Z,37.35
2023-12-09T07:40:07.605Z,35.38
2023-12-09T07:42:34.524Z,38.00
2023-12-09T07:45:01.560Z,33.92
2023-12-09T07:47:28.489Z,35.10
2023-12-09T07:49:55.590Z,34.22
2023-12-09T07:52:22.484Z,35.78
2023-12-09T07:54:49.642Z,37.75
2023-12-09T07:57:16.638Z,38.85
2023-12-09T07:59:43.700Z,40.30
2023-12-09T08:02:10.632Z,41.78
2023-12-09T08:04:37.616Z,40.45
2023-12-09T08:07:07.014Z,41.35
2023-12-09T08:09:34.182Z,40.77
2023-12-09T08:12:01.088Z,40.65
2023-12-09T08:14:28.139Z,39.40
2023-12-09T08:16:55.166Z,39.58
2023-12-09T08:19:22.311Z,40.67
2023-12-09T08:21:49.276Z,41.50
2023-12-09T08:24:16.431Z,39.42
2023-12-09T08:26:43.666Z,40.53
2023-12-09T08:29:13.182Z,40.75
2023-12-09T08:31:40.376Z,40.35
2023-12-09T08:34:07.508Z,39.75
2023-12-09T08:36:34.681Z,40.67
2023-12-09T08:39:01.969Z,41.58
2023-12-09T08:41:30.857Z,43.38
2023-12-09T08:43:58.476Z,44.42
2023-12-09T08:46:25.582Z,42.75
2023-12-09T08:48:52.882Z,44.67
2023-12-09T08:51:23.060Z,41.92
2023-12-09T08:53:51.011Z,41.03
2023-12-09T08:56:18.172Z,38.92
2023-12-09T08:58:45.105Z,38.97
2023-12-09T09:01:13.794Z,40.65
2023-12-09T09:03:40.945Z,41.00
2023-12-09T09:06:08.128Z,41.75
2023-12-09T09:08:35.178Z,42.33
2023-12-09T09:11:02.349Z,41.25
2023-12-09T09:13:30.354Z,39.20
2023-12-09T09:15:57.423Z,38.47
2023-12-09T09:18:24.749Z,38.88
2023-12-09T09:20:51.899Z,39.30
2023-12-09T09:23:18.998Z,36.55
2023-12-09T09:25:46.065Z,40.78
2023-12-09T09:28:13.516Z,36.17
2023-12-09T09:30:40.488Z,37.58
2023-12-09T09:33:07.907Z,37.00
2023-12-09T09:35:35.126Z,36.28
2023-12-09T09:38:02.204Z,33.50
2023-12-09T09:40:29.106Z,35.67
2023-12-09T09:43:06.421Z,33.78
2023-12-09T09:45:34.179Z,36.83
2023-12-09T09:48:07.087Z,34.75
2023-12-09T09:50:43.232Z,36.10
2023-12-09T09:53:21.432Z,34.90
2023-12-09T09:55:49.255Z,35.25
2023-12-09T09:58:17.744Z,36.65
2023-12-09T10:00:45.347Z,34.33
2023-12-09T10:03:12.716Z,38.40
2023-12-09T10:05:40.297Z,35.83
2023-12-09T10:08:07.581Z,37.05
2023-12-09T10:10:35.987Z,36.40
2023-12-09T10:13:03.107Z,36.72
2023-12-09T10:15:30.286Z,35.42
2023-12-09T10:18:06.882Z,37.00
2023-12-09T10:20:36.290Z,35.40
2023-12-09T10:23:03.508Z,35.77
2023-12-09T10:25:30.834Z,35.50
2023-12-09T10:27:59.047Z,37.70
2023-12-09T10:30:26.443Z,35.47
2023-12-09T10:32:54.245Z,35.05
2023-12-09T10:35:21.871Z,33.30
2023-12-09T10:37:52.409Z,33.97
2023-12-09T10:40:22.938Z,35.47
2023-12-09T10:42:51.905Z,33.70
2023-12-09T10:45:18.995Z,35.60
2023-12-09T10:47:48.776Z,33.85
2023-12-09T10:50:15.961Z,37.90
2023-12-09T10:52:43.069Z,36.78
2023-12-09T10:55:10.273Z,38.05
2023-12-09T10:57:37.575Z,36.97
2023-12-09T11:00:12.594Z,39.10
2023-12-09T11:02:42.756Z,34.28
2023-12-09T11:05:13.455Z,34.65
2023-12-09T11:07:41.653Z,37.75
2023-12-09T11:10:10.392Z,37.88
2023-12-09T11:12:37.663Z,37.35
2023-12-09T11:15:33.701Z,36.22
2023-12-09T11:18:11.937Z,35.22
2023-12-09T11:20:42.867Z,36.00
2023-12-09T11:23:11.874Z,34.58
2023-12-09T11:25:44.013Z,38.90
2023-12-09T11:28:13.452Z,37.53
2023-12-09T11:30:43.354Z,35.83
2023-12-09T11:33:11.079Z,38.17
2023-12-09T11:35:39.533Z,36.58
2023-12-09T11:38:09.396Z,36.05
2023-12-09T11:40:38.013Z,34.50
2023-12-09T11:43:05.425Z,33.50
2023-12-09T11:45:32.916Z,32.47
2023-12-09T11:48:01.909Z,33.30
2023-12-09T11:50:30.586Z,35.10
2023-12-09T11:52:57.806Z,32.25
2023-12-09T11:55:24.981Z,33.15
2023-12-09T11:57:51.944Z,33.80
2023-12-09T12:00:20.346Z,34.70
2023-12-09T12:02:49.938Z,33.55
2023-12-09T12:05:17.490Z,34.53
2023-12-09T12:07:44.557Z,34.30
2023-12-09T12:10:11.901Z,35.13
2023-12-09T12:12:38.975Z,34.13
2023-12-09T12:15:06.667Z,33.53
2023-12-09T12:17:40.950Z,34.63
2023-12-09T12:22:56.990Z,34.75
2023-12-09T12:25:26.700Z,34.70
2023-12-09T12:27:58.229Z,36.55
2023-12-09T12:30:25.486Z,34.38
2023-12-09T12:32:57.831Z,35.58
2023-12-09T12:35:26.375Z,37.15
2023-12-09T12:37:56.029Z,36.42
2023-12-09T12:40:23.163Z,36.40
2023-12-09T12:42:51.573Z,36.53
2023-12-09T12:45:20.065Z,36.30
2023-12-09T12:47:48.505Z,38.33
2023-12-09T12:50:19.248Z,35.63
2023-12-09T12:52:47.119Z,35.58
2023-12-09T12:55:14.397Z,38.10
2023-12-09T12:57:42.078Z,34.55
2023-12-09T13:00:12.559Z,36.58
2023-12-09T13:02:40.111Z,36.25
2023-12-09T13:05:08.250Z,33.90
2023-12-09T13:07:35.319Z,34.88
2023-12-09T13:10:02.343Z,34.70
2023-12-09T13:12:29.742Z,38.70
2023-12-09T13:14:57.726Z,36.97
2023-12-09T13:17:24.773Z,35.80
2023-12-09T13:19:51.814Z,35.60
2023-12-09T13:22:19.034Z,37.10
2023-12-09T13:24:46.329Z,36.22
2023-12-09T13:27:14.304Z,35.28
2023-12-09T13:29:41.257Z,39.10
2023-12-09T13:32:08.372Z,38.55
2023-12-09T13:34:35.360Z,39.83
2023-12-09T13:37:02.569Z,40.20
2023-12-09T13:39:29.692Z,42.63
2023-12-09T13:41:56.688Z,42.38
2023-12-09T13:44:23.597Z,43.67
2023-12-09T13:46:50.667Z,42.17
2023-12-09T13:49:17.893Z,44.95
2023-12-09T13:51:45.004Z,42.28
2023-12-09T13:54:12.442Z,43.08
2023-12-09T13:56:40.924Z,42.88
2023-12-09T13:59:07.942Z,43.42
2023-12-09T14:01:35.080Z,43.40
2023-12-09T14:04:02.669Z,45.30
2023-12-09T14:06:29.747Z,43.92
2023-12-09T14:08:56.755Z,45.20
2023-12-09T14:11:27.076Z,45.50
2023-12-09T14:16:23.265Z,43.33
2023-12-09T14:18:50.597Z,46.17
2023-12-09T14:21:17.762Z,45.65
2023-12-09T14:23:44.770Z,46.22
2023-12-09T14:26:11.716Z,44.75
2023-12-09T14:28:38.816Z,46.30
2023-12-09T14:31:06.922Z,44.90
2023-12-09T14:33:39.557Z,42.53
2023-12-09T14:36:10.266Z,43.55
2023-12-09T14:38:37.420Z,43.83
2023-12-09T14:41:04.675Z,41.75
2023-12-09T14:43:31.738Z,39.80
2023-12-09T14:45:58.996Z,40.53
2023-12-09T14:48:28.829Z,40.67
2023-12-09T14:50:57.203Z,42.45
2023-12-09T14:53:24.304Z,42.17
2023-12-09T14:55:51.721Z,42.83
2023-12-09T14:58:19.574Z,44.30
2023-12-09T15:00:51.033Z,45.03
2023-12-09T15:03:18.769Z,43.33
2023-12-09T15:05:45.815Z,46.10
2023-12-09T15:08:13.464Z,44.20
2023-12-09T15:10:40.831Z,42.78
2023-12-09T15:13:07.918Z,41.55
2023-12-09T15:15:34.951Z,42.67
2023-12-09T15:18:02.180Z,45.13
2023-12-09T15:20:29.185Z,44.60
2023-12-09T15:22:58.120Z,44.47
2023-12-09T15:25:25.306Z,45.83
2023-12-09T15:27:52.748Z,47.53
2023-12-09T15:30:20.491Z,47.90
2023-12-09T15:32:48.377Z,41.63
2023-12-09T15:35:15.432Z,39.58
2023-12-09T15:37:43.737Z,40.20
2023-12-09T15:40:12.466Z,41.35
2023-12-09T15:42:39.586Z,41.35
2023-12-09T15:45:07.075Z,40.30
2023-12-09T15:47:34.173Z,40.60
2023-12-09T15:50:02.213Z,38.78
2023-12-09T15:52:29.446Z,36.92
2023-12-09T15:54:56.846Z,37.25
2023-12-09T15:57:24.253Z,36.03
2023-12-09T15:59:54.735Z,35.78
2023-12-09T16:02:22.512Z,37.38
2023-12-09T16:04:49.524Z,35.33
2023-12-09T16:07:17.005Z,35.08
2023-12-09T16:09:51.737Z,33.97
2023-12-09T16:12:21.738Z,35.45
2023-12-09T16:14:53.204Z,34.28
2023-12-09T16:17:20.804Z,33.85
2023-12-09T16:19:47.884Z,35.15
2023-12-09T16:22:15.202Z,38.55
2023-12-09T16:24:42.210Z,36.05
2023-12-09T16:27:10.121Z,37.60
2023-12-09T16:29:37.147Z,36.78
2023-12-09T16:32:06.556Z,35.85
2023-12-09T16:34:35.333Z,34.92
2023-12-09T16:37:02.556Z,36.75
2023-12-09T16:39:29.572Z,33.17
2023-12-09T16:41:56.609Z,30.75
2023-12-09T16:44:24.291Z,30.23
2023-12-09T16:46:52.992Z,34.25
2023-12-09T16:49:20.279Z,34.45
2023-12-09T16:51:47.488Z,36.35
2023-12-09T16:54:14.574Z,36.53
2023-12-09T16:56:41.821Z,36.67
2023-12-09T16:59:12.137Z,35.53
2023-12-09T17:04:09.667Z,27.65
2023-12-09T17:06:37.072Z,29.75
2023-12-09T17:09:04.185Z,30.52
2023-12-09T17:11:31.349Z,29.20
2023-12-09T17:13:58.292Z,28.48
2023-12-09T17:16:26.042Z,31.35
2023-12-09T17:18:53.179Z,31.55
2023-12-09T17:21:20.999Z,29.23
2023-12-09T17:23:48.367Z,30.73
2023-12-09T17:26:15.540Z,28.27
2023-12-09T17:28:42.875Z,29.25
2023-12-09T17:31:09.907Z,39.03
2023-12-09T17:33:39.241Z,28.42
2023-12-09T17:36:06.720Z,27.20
2023-12-09T17:38:33.891Z,28.52
2023-12-09T17:41:00.925Z,25.98
2023-12-09T17:43:27.936Z,26.13
2023-12-09T17:45:55.507Z,29.58
2023-12-09T17:48:25.144Z,24.55
2023-12-09T17:50:52.552Z,24.45
2023-12-09T17:53:21.546Z,24.77
2023-12-09T17:55:49.777Z,25.20
2023-12-09T17:58:17.640Z,22.92
2023-12-09T18:00:44.916Z,23.73
2023-12-09T18:03:12.151Z,22.33
2023-12-09T18:05:39.317Z,23.73
2023-12-09T18:08:06.854Z,22.45
2023-12-09T18:10:34.016Z,20.88
2023-12-09T18:13:01.091Z,22.40
2023-12-09T18:15:28.166Z,21.52
2023-12-09T18:17:55.391Z,20.23
2023-12-09T18:20:22.558Z,21.48
2023-12-09T18:22:49.606Z,22.23
2023-12-09T18:25:16.727Z,21.80
2023-12-09T18:27:44.268Z,21.27
2023-12-09T18:30:11.656Z,22.17
2023-12-09T18:32:39.981Z,22.15
2023-12-09T18:35:10.681Z,20.70
2023-12-09T18:37:38.943Z,21.15
2023-12-09T18:40:11.368Z,21.85
2023-12-09T18:42:38.823Z,23.67
2023-12-09T18:45:06.937Z,22.77
2023-12-09T18:47:36.097Z,25.27
2023-12-09T18:50:04.552Z,22.63
2023-12-09T18:52:32.724Z,24.98
2023-12-09T18:55:00.147Z,23.30
2023-12-09T18:57:27.260Z,23.73
2023-12-09T18:59:54.215Z,24.77
2023-12-09T19:02:21.379Z,22.58
2023-12-09T19:04:50.683Z,24.00
2023-12-09T19:07:19.564Z,23.75
2023-12-09T19:09:46.978Z,26.38
2023-12-09T19:12:14.235Z,24.98
2023-12-09T19:14:41.313Z,25.50
2023-12-09T19:17:08.924Z,25.13
2023-12-09T19:19:36.134Z,23.30
2023-12-09T19:22:04.614Z,25.17
2023-12-09T19:24:31.716Z,25.45
2023-12-09T19:26:58.992Z,24.60
2023-12-09T19:29:26.212Z,28.40
2023-12-09T19:31:53.246Z,26.95
2023-12-09T19:34:20.495Z,26.17
2023-12-09T19:36:48.020Z,24.90
2023-12-09T19:39:18.020Z,25.25
2023-12-09T19:41:45.356Z,26.95
2023-12-09T19:44:12.369Z,28.02
2023-12-09T19:46:39.417Z,28.88
2023-12-09T19:49:07.019Z,25.77
2023-12-09T19:51:34.213Z,27.92
2023-12-09T19:54:01.293Z,28.48
2023-12-09T19:56:30.452Z,29.95
2023-12-09T19:58:57.432Z,29.33
2023-12-09T20:01:24.554Z,32.33
2023-12-09T20:03:51.919Z,35.22
2023-12-09T20:06:19.497Z,33.85
2023-12-09T20:08:46.644Z,35.08
2023-12-09T20:11:14.206Z,33.70
2023-12-09T20:13:41.243Z,32.58
2023-12-09T20:16:09.268Z,31.08
2023-12-09T20:18:36.285Z,32.65
2023-12-09T20:21:03.663Z,32.28
2023-12-09T20:23:30.717Z,32.38
2023-12-09T20:25:57.835Z,30.75
2023-12-09T20:28:24.914Z,31.48
2023-12-09T20:30:54.125Z,34.42
2023-12-09T20:33:22.247Z,32.67
2023-12-09T20:35:49.696Z,31.25
2023-12-09T20:38:17.157Z,32.33
2023-12-09T20:40:45.787Z,31.73
2023-12-09T20:43:12.958Z,32.13
2023-12-09T20:45:40.283Z,33.50
2023-12-09T20:48:07.374Z,31.58
2023-12-09T20:50:34.543Z,30.35
2023-12-09T20:53:02.907Z,31.63
2023-12-09T20:55:29.958Z,34.08
2023-12-09T20:57:56.954Z,32.90
2023-12-09T21:00:24.187Z,32.83
2023-12-09T21:02:51.176Z,34.90
2023-12-09T21:05:19.724Z,32.47
2023-12-09T21:07:48.670Z,34.42
2023-12-09T21:10:15.748Z,32.28
2023-12-09T21:12:42.793Z,33.83
2023-12-09T21:15:09.874Z,31.60
2023-12-09T21:17:36.862Z,31.50
2023-12-09T21:20:04.268Z,33.08
2023-12-09T21:22:31.843Z,32.83
2023-12-09T21:24:59.206Z,32.40
2023-12-09T21:27:26.255Z,32.50
2023-12-09T21:29:53.651Z,32.78
2023-12-09T21:32:20.713Z,30.85
2023-12-09T21:34:48.084Z,31.25
2023-12-09T21:37:15.247Z,32.35
2023-12-09T21:39:42.266Z,34.50
2023-12-09T21:42:09.576Z,35.47
2023-12-09T21:44:36.750Z,35.10
2023-12-09T21:47:04.103Z,33.15
2023-12-09T21:49:31.300Z,32.20
2023-12-09T21:51:58.841Z,28.40
2023-12-09T21:54:25.945Z,25.00
2023-12-09T21:56:52.881Z,23.88
2023-12-09T21:59:19.884Z,21.30
2023-12-09T22:01:49.804Z,24.98
2023-12-09T22:04:21.549Z,25.80
2023-12-09T22:06:48.828Z,24.75
2023-12-09T22:09:19.332Z,24.13
2023-12-09T22:11:46.459Z,23.88
2023-12-09T22:14:13.471Z,24.55
2023-12-09T22:16:42.815Z,23.90
2023-12-09T22:19:10.151Z,22.77
2023-12-09T22:21:45.039Z,24.10
2023-12-09T22:24:12.584Z,21.58
2023-12-09T22:26:47.299Z,22.98
2023-12-09T22:29:14.432Z,24.23
2023-12-09T22:31:42.996Z,25.35
2023-12-09T22:34:11.984Z,25.45
2023-12-09T22:36:42.937Z,24.52
2023-12-09T22:39:13.512Z,24.98
2023-12-09T22:41:40.975Z,26.17
2023-12-09T22:44:08.110Z,24.95
2023-12-09T22:46:35.272Z,26.08
2023-12-09T22:49:08.069Z,26.45
2023-12-09T22:51:37.307Z,26.23
2023-12-09T22:54:04.679Z,25.55
2023-12-09T22:56:32.390Z,25.58
2023-12-09T22:59:00.007Z,25.33
2023-12-09T23:01:31.346Z,25.48
2023-12-09T23:03:58.461Z,26.33
2023-12-09T23:06:25.856Z,26.67
2023-12-09T23:08:53.465Z,27.52
2023-12-09T23:11:21.110Z,26.27
2023-12-09T23:13:51.099Z,26.63
2023-12-09T23:16:18.169Z,25.58
2023-12-09T23:18:45.481Z,27.48
2023-12-09T23:21:12.588Z,26.33
2023-12-09T23:23:40.130Z,27.20
2023-12-09T23:26:07.485Z,25.55
2023-12-09T23:28:34.952Z,26.73
2023-12-09T23:31:03.860Z,27.60
2023-12-09T23:33:32.266Z,25.52
2023-12-09T23:35:59.638Z,26.05
2023-12-09T23:38:26.669Z,27.42
2023-12-09T23:40:53.736Z,25.73
2023-12-09T23:43:20.681Z,26.65
2023-12-09T23:45:47.815Z,26.70
2023-12-09T23:48:19.000Z,27.08
2023-12-09T23:50:46.332Z,27.92
2023-12-09T23:53:14.683Z,26.25
2023-12-09T23:55:41.870Z,26.73
2023-12-09T23:58:09.783Z,27.30
